createdAt,value
2022-08-10T00:01:54.695Z,20.96
2022-08-10T00:04:23.059Z,20.95
2022-08-10T00:06:54.236Z,20.96
2022-08-10T00:09:22.920Z,20.94
2022-08-10T00:11:49.712Z,20.90
2022-08-10T00:14:19.236Z,20.89
2022-08-10T00:16:45.977Z,20.87
2022-08-10T00:19:12.474Z,20.84
2022-08-10T00:21:39.030Z,20.80
2022-08-10T00:24:05.657Z,20.77
2022-08-10T00:27:51.950Z,20.77
2022-08-10T00:29:19.027Z,20.75
2022-08-10T00:31:57.772Z,20.71
2022-08-10T00:34:27.014Z,20.70
2022-08-10T00:36:53.529Z,20.68
2022-08-10T00:39:20.132Z,20.68
2022-08-10T00:41:47.343Z,20.63
2022-08-10T00:44:38.392Z,20.58
2022-08-10T00:47:06.048Z,20.57
2022-08-10T00:49:32.727Z,20.43
2022-08-10T00:51:59.838Z,20.47
2022-08-10T00:54:26.558Z,20.42
2022-08-10T00:57:17.794Z,20.37
2022-08-10T00:59:58.745Z,20.30
2022-08-10T01:02:27.538Z,20.25
2022-08-10T01:05:00.341Z,20.17
2022-08-10T01:07:40.213Z,20.11
2022-08-10T01:10:15.723Z,20.07
2022-08-10T01:13:04.581Z,20.05
2022-08-10T01:15:37.329Z,19.99
2022-08-10T01:18:09.372Z,20.04
2022-08-10T01:20:48.712Z,20.05
2022-08-10T01:23:44.054Z,20.01
2022-08-10T01:26:31.253Z,19.99
2022-08-10T01:29:48.013Z,19.90
2022-08-10T01:32:17.441Z,19.91
2022-08-10T01:34:50.644Z,19.92
2022-08-10T01:37:24.210Z,19.90
2022-08-10T01:40:02.330Z,19.90
2022-08-10T01:42:34.785Z,19.92
2022-08-10T01:45:04.940Z,19.85
2022-08-10T01:47:56.137Z,19.86
2022-08-10T01:50:25.646Z,19.79
2022-08-10T01:52:58.454Z,19.83
2022-08-10T01:55:26.731Z,19.77
2022-08-10T01:57:54.158Z,19.74
2022-08-10T02:00:21.134Z,19.76
2022-08-10T02:02:50.546Z,19.73
2022-08-10T02:05:21.495Z,19.70
2022-08-10T02:07:49.623Z,19.69
2022-08-10T02:10:19.367Z,19.68
2022-08-10T02:12:46.983Z,19.61
2022-08-10T02:15:17.735Z,19.66
2022-08-10T02:18:00.595Z,19.66
2022-08-10T02:20:36.236Z,19.64
2022-08-10T02:23:08.698Z,19.59
2022-08-10T02:25:42.211Z,19.55
2022-08-10T02:28:27.512Z,19.48
2022-08-10T02:31:01.043Z,19.44
2022-08-10T02:33:28.543Z,19.40
2022-08-10T02:35:56.185Z,19.29
2022-08-10T02:38:58.845Z,19.33
2022-08-10T02:45:12.911Z,19.30
2022-08-10T02:45:20.367Z,19.26
2022-08-10T02:47:28.175Z,19.02
2022-08-10T02:50:12.586Z,19.11
2022-08-10T02:52:55.125Z,19.15
2022-08-10T02:55:27.011Z,19.18
2022-08-10T02:58:12.745Z,19.17
2022-08-10T03:00:48.248Z,19.12
2022-08-10T03:03:20.437Z,19.08
2022-08-10T03:05:50.944Z,19.05
2022-08-10T03:08:21.304Z,19.03
2022-08-10T03:10:49.535Z,19.00
2022-08-10T03:13:18.604Z,18.95
2022-08-10T03:15:46.069Z,18.95
2022-08-10T03:18:13.592Z,18.92
2022-08-10T03:20:42.804Z,18.90
2022-08-10T03:23:21.236Z,18.89
2022-08-10T03:25:53.211Z,18.80
2022-08-10T03:28:26.908Z,18.84
2022-08-10T03:30:54.492Z,18.83
2022-08-10T03:33:22.719Z,18.82
2022-08-10T03:36:39.972Z,18.82
2022-08-10T03:38:40.508Z,18.78
2022-08-10T03:41:11.583Z,18.77
2022-08-10T03:43:45.273Z,18.77
2022-08-10T03:46:13.820Z,18.73
2022-08-10T03:48:48.274Z,18.71
2022-08-10T03:51:16.983Z,18.70
2022-08-10T03:54:04.779Z,18.69
2022-08-10T03:56:33.027Z,18.64
2022-08-10T03:59:00.629Z,18.56
2022-08-10T04:02:43.351Z,18.64
2022-08-10T04:04:17.800Z,18.65
2022-08-10T04:06:51.511Z,18.65
2022-08-10T04:09:23.283Z,18.66
2022-08-10T04:11:49.929Z,18.62
2022-08-10T04:14:38.088Z,18.65
2022-08-10T04:17:03.000Z,18.63
2022-08-10T04:19:37.886Z,18.62
2022-08-10T04:22:10.292Z,18.62
2022-08-10T04:24:38.825Z,18.63
2022-08-10T04:27:05.562Z,18.62
2022-08-10T04:29:32.725Z,18.63
2022-08-10T04:32:01.197Z,18.62
2022-08-10T04:34:31.860Z,18.66
2022-08-10T04:37:04.343Z,18.62
2022-08-10T04:39:33.810Z,18.62
2022-08-10T04:42:00.535Z,18.64
2022-08-10T04:44:29.991Z,18.68
2022-08-10T04:46:59.248Z,18.69
2022-08-10T04:49:55.191Z,18.73
2022-08-10T04:52:13.878Z,18.76
2022-08-10T04:54:43.135Z,18.78
2022-08-10T04:57:09.770Z,18.83
2022-08-10T04:59:36.336Z,18.86
2022-08-10T05:02:27.860Z,18.91
2022-08-10T05:04:49.713Z,19.05
2022-08-10T05:07:18.499Z,19.15
2022-08-10T05:10:02.781Z,19.50
2022-08-10T05:12:38.331Z,19.95
2022-08-10T05:15:07.515Z,20.40
2022-08-10T05:17:35.813Z,20.85
2022-08-10T05:20:06.655Z,21.39
2022-08-10T05:22:36.101Z,21.95
2022-08-10T05:25:03.885Z,22.43
2022-08-10T05:27:30.423Z,22.96
2022-08-10T05:30:02.340Z,23.32
2022-08-10T05:32:34.348Z,23.56
2022-08-10T05:35:21.087Z,23.96
2022-08-10T05:38:12.963Z,24.38
2022-08-10T05:40:38.321Z,24.93
2022-08-10T05:43:05.570Z,25.42
2022-08-10T05:45:32.103Z,25.80
2022-08-10T05:48:54.101Z,26.32
2022-08-10T05:50:45.397Z,26.70
2022-08-10T05:53:39.098Z,27.10
2022-08-10T05:55:59.369Z,27.15
2022-08-10T05:58:25.961Z,27.61
2022-08-10T06:00:55.840Z,27.90
2022-08-10T06:03:27.520Z,28.15
2022-08-10T06:05:58.609Z,28.30
2022-08-10T06:08:31.325Z,28.41
2022-08-10T06:12:27.861Z,28.57
2022-08-10T06:14:13.137Z,28.67
2022-08-10T06:16:44.160Z,28.94
2022-08-10T06:19:15.014Z,29.06
2022-08-10T06:22:00.317Z,29.18
2022-08-10T06:24:30.492Z,28.97
2022-08-10T06:26:58.413Z,29.04
2022-08-10T06:29:26.400Z,28.88
2022-08-10T06:31:53.417Z,28.85
2022-08-10T06:34:28.500Z,28.92
2022-08-10T06:36:57.899Z,28.83
2022-08-10T06:39:34.857Z,29.00
2022-08-10T06:42:17.594Z,29.00
2022-08-10T06:44:52.647Z,29.04
2022-08-10T06:47:22.910Z,29.06
2022-08-10T06:49:59.903Z,29.00
2022-08-10T06:52:30.578Z,28.99
2022-08-10T06:55:00.593Z,29.02
2022-08-10T06:57:32.367Z,28.75
2022-08-10T07:00:02.521Z,28.94
2022-08-10T07:02:52.326Z,28.81
2022-08-10T07:05:24.703Z,28.83
2022-08-10T07:07:54.470Z,28.73
2022-08-10T07:10:23.406Z,28.71
2022-08-10T07:12:56.716Z,28.72
2022-08-10T07:15:59.596Z,28.60
2022-08-10T07:18:12.930Z,28.66
2022-08-10T07:20:40.063Z,28.48
2022-08-10T07:23:57.203Z,28.81
2022-08-10T07:26:00.970Z,28.67
2022-08-10T07:28:32.970Z,28.84
2022-08-10T07:30:59.961Z,28.89
2022-08-10T07:33:28.770Z,28.63
2022-08-10T07:35:57.222Z,28.70
2022-08-10T07:38:26.962Z,28.95
2022-08-10T07:40:54.546Z,29.09
2022-08-10T07:43:24.105Z,29.33
2022-08-10T07:45:51.108Z,29.38
2022-08-10T07:48:27.287Z,29.31
2022-08-10T07:50:58.351Z,29.43
2022-08-10T07:53:27.735Z,29.28
2022-08-10T07:56:07.450Z,29.52
2022-08-10T07:58:51.757Z,29.75
2022-08-10T08:01:21.692Z,29.94
2022-08-10T08:04:10.552Z,30.12
2022-08-10T08:06:36.634Z,29.95
2022-08-10T08:09:04.763Z,29.80
2022-08-10T08:11:32.494Z,29.67
2022-08-10T08:14:03.375Z,29.58
2022-08-10T08:16:32.076Z,29.70
2022-08-10T08:19:26.300Z,29.87
2022-08-10T08:24:08.084Z,29.95
2022-08-10T08:24:37.688Z,29.96
2022-08-10T08:27:05.686Z,30.21
2022-08-10T08:29:35.517Z,30.30
2022-08-10T08:32:05.297Z,30.32
2022-08-10T08:34:33.423Z,30.60
2022-08-10T08:37:04.886Z,30.62
2022-08-10T08:39:33.341Z,30.21
2022-08-10T08:42:24.219Z,29.94
2022-08-10T08:45:05.817Z,29.97
2022-08-10T08:48:03.050Z,30.16
2022-08-10T08:50:39.214Z,30.47
2022-08-10T08:54:00.923Z,30.38
2022-08-10T08:56:51.334Z,30.92
2022-08-10T08:59:47.637Z,31.15
2022-08-10T09:02:28.801Z,31.29
2022-08-10T09:05:09.467Z,31.43
2022-08-10T09:08:25.155Z,31.34
2022-08-10T09:11:01.703Z,31.22
2022-08-10T09:14:05.934Z,31.25
2022-08-10T09:16:45.686Z,31.38
2022-08-10T09:19:35.132Z,31.16
2022-08-10T09:22:18.119Z,30.81
2022-08-10T09:24:58.632Z,30.78
2022-08-10T09:27:36.269Z,31.19
2022-08-10T09:30:10.970Z,31.00
2022-08-10T09:36:21.606Z,30.96
2022-08-10T09:36:24.242Z,30.76
2022-08-10T09:39:12.472Z,30.90
2022-08-10T09:42:26.379Z,30.99
2022-08-10T09:45:12.607Z,31.04
2022-08-10T09:48:01.255Z,30.98
2022-08-10T09:51:28.434Z,31.05
2022-08-10T09:54:04.483Z,31.26
2022-08-10T10:00:12.542Z,32.02
2022-08-10T10:03:06.738Z,32.07
2022-08-10T10:05:52.052Z,31.86
2022-08-10T10:08:36.443Z,31.95
2022-08-10T10:11:19.842Z,32.00
2022-08-10T10:14:12.680Z,32.28
2022-08-10T10:17:07.898Z,32.38
2022-08-10T10:20:04.375Z,32.17
2022-08-10T10:22:50.350Z,32.16
2022-08-10T10:25:49.851Z,32.34
2022-08-10T10:29:19.804Z,32.39
2022-08-10T10:31:45.621Z,32.42
2022-08-10T10:34:40.775Z,32.19
2022-08-10T10:37:09.995Z,32.34
2022-08-10T10:39:44.588Z,32.15
2022-08-10T10:42:45.196Z,31.96
2022-08-10T10:45:29.781Z,31.57
2022-08-10T10:48:32.729Z,31.50
2022-08-10T10:51:18.265Z,31.63
2022-08-10T10:54:03.530Z,31.92
2022-08-10T10:56:57.800Z,32.22
2022-08-10T11:00:04.000Z,32.06
2022-08-10T11:02:39.333Z,32.28
2022-08-10T11:05:33.368Z,32.05
2022-08-10T11:08:17.150Z,32.20
2022-08-10T11:10:47.307Z,32.50
2022-08-10T11:14:25.225Z,32.56
2022-08-10T11:16:24.778Z,32.19
2022-08-10T11:19:13.835Z,31.84
2022-08-10T11:22:22.213Z,31.85
2022-08-10T11:24:54.486Z,31.94
2022-08-10T11:27:56.670Z,31.79
2022-08-10T11:30:31.050Z,31.90
2022-08-10T11:33:32.634Z,32.05
2022-08-10T11:36:08.865Z,32.21
2022-08-10T11:39:23.973Z,32.28
2022-08-10T11:42:33.327Z,32.06
2022-08-10T11:45:22.029Z,32.19
2022-08-10T11:47:53.367Z,32.10
2022-08-10T11:50:31.558Z,31.94
2022-08-10T11:53:19.629Z,32.03
2022-08-10T11:55:52.813Z,32.25
2022-08-10T11:58:43.458Z,32.39
2022-08-10T12:01:13.073Z,32.34
2022-08-10T12:03:44.678Z,32.58
2022-08-10T12:06:15.561Z,32.69
2022-08-10T12:10:05.375Z,33.01
2022-08-10T12:11:33.135Z,32.77
2022-08-10T12:14:20.227Z,32.75
2022-08-10T12:16:51.210Z,32.55
2022-08-10T12:19:31.334Z,32.21
2022-08-10T12:22:23.125Z,32.42
2022-08-10T12:24:55.855Z,32.35
2022-08-10T12:27:52.063Z,32.07
2022-08-10T12:30:29.324Z,31.95
2022-08-10T12:33:26.526Z,32.26
2022-08-10T12:36:17.442Z,32.41
2022-08-10T12:38:51.957Z,32.27
2022-08-10T12:41:43.806Z,32.32
2022-08-10T12:44:41.274Z,32.34
2022-08-10T12:47:24.221Z,32.31
2022-08-10T12:50:23.884Z,32.28
2022-08-10T12:53:32.659Z,32.29
2022-08-10T12:56:01.720Z,32.33
2022-08-10T12:58:57.873Z,32.48
2022-08-10T13:01:18.826Z,32.63
2022-08-10T13:04:23.594Z,32.39
2022-08-10T13:06:41.614Z,32.28
2022-08-10T13:09:08.685Z,32.02
2022-08-10T13:12:34.923Z,31.96
2022-08-10T13:14:47.357Z,32.13
2022-08-10T13:17:21.089Z,32.27
2022-08-10T13:19:55.528Z,32.23
2022-08-10T13:22:30.216Z,32.10
2022-08-10T13:25:01.368Z,32.23
2022-08-10T13:28:00.656Z,31.64
2022-08-10T13:30:37.581Z,31.36
2022-08-10T13:33:05.609Z,31.26
2022-08-10T13:35:33.350Z,31.34
2022-08-10T13:38:02.912Z,31.41
2022-08-10T13:40:31.708Z,31.33
2022-08-10T13:43:00.580Z,31.10
2022-08-10T13:45:28.623Z,30.71
2022-08-10T13:48:10.751Z,30.60
2022-08-10T13:50:38.798Z,30.55
2022-08-10T13:53:13.349Z,30.84
2022-08-10T13:55:54.996Z,30.99
2022-08-10T13:58:31.037Z,31.05
2022-08-10T14:00:59.950Z,31.04
2022-08-10T14:03:27.669Z,30.93
2022-08-10T14:05:56.158Z,30.94
2022-08-10T14:08:28.802Z,30.91
2022-08-10T14:11:09.973Z,30.75
2022-08-10T14:13:42.069Z,30.62
2022-08-10T14:16:11.424Z,30.81
2022-08-10T14:18:39.802Z,30.78
2022-08-10T14:21:07.096Z,30.83
2022-08-10T14:23:40.214Z,31.00
2022-08-10T14:26:09.080Z,31.05
2022-08-10T14:28:41.469Z,31.00
2022-08-10T14:31:11.570Z,30.82
2022-08-10T14:33:43.241Z,30.63
2022-08-10T14:36:20.247Z,30.78
2022-08-10T14:38:53.926Z,30.90
2022-08-10T14:42:00.817Z,30.81
2022-08-10T14:44:18.734Z,30.52
2022-08-10T14:46:51.653Z,30.37
2022-08-10T14:49:25.553Z,30.27
2022-08-10T14:51:59.641Z,30.27
2022-08-10T14:54:29.805Z,30.26
2022-08-10T14:57:11.231Z,30.07
2022-08-10T15:00:21.088Z,30.03
2022-08-10T15:02:40.453Z,29.99
2022-08-10T15:05:21.696Z,29.85
2022-08-10T15:07:58.884Z,30.07
2022-08-10T15:10:28.083Z,30.08
2022-08-10T15:12:58.714Z,29.99
2022-08-10T15:15:28.877Z,29.85
2022-08-10T15:17:58.333Z,29.90
2022-08-10T15:20:29.458Z,30.00
2022-08-10T15:23:08.124Z,29.96
2022-08-10T15:25:58.295Z,29.77
2022-08-10T15:28:33.276Z,29.62
2022-08-10T15:31:21.392Z,29.49
2022-08-10T15:34:11.471Z,29.56
2022-08-10T15:37:47.057Z,29.44
2022-08-10T15:40:24.760Z,29.35
2022-08-10T15:42:49.216Z,29.22
2022-08-10T15:45:18.054Z,29.08
2022-08-10T15:47:52.737Z,29.10
2022-08-10T15:50:40.618Z,29.02
2022-08-10T15:53:15.976Z,29.04
2022-08-10T15:55:51.521Z,29.00
2022-08-10T15:58:37.462Z,29.00
2022-08-10T16:02:15.063Z,28.92
2022-08-10T16:04:19.714Z,28.85
2022-08-10T16:06:57.115Z,28.86
2022-08-10T16:10:22.305Z,28.74
2022-08-10T16:12:30.145Z,28.56
2022-08-10T16:15:00.615Z,28.60
2022-08-10T16:17:28.118Z,28.58
2022-08-10T16:19:57.627Z,28.53
2022-08-10T16:22:34.468Z,28.57
2022-08-10T16:25:11.927Z,28.54
2022-08-10T16:27:40.535Z,28.55
2022-08-10T16:30:07.547Z,28.47
2022-08-10T16:32:35.774Z,28.40
2022-08-10T16:35:09.181Z,28.37
2022-08-10T16:37:58.702Z,28.29
2022-08-10T16:40:28.907Z,28.22
2022-08-10T16:42:57.347Z,28.17
2022-08-10T16:45:31.683Z,28.15
2022-08-10T16:47:59.409Z,28.10
2022-08-10T16:50:37.559Z,28.05
2022-08-10T16:53:06.910Z,28.09
2022-08-10T16:55:49.560Z,28.08
2022-08-10T16:58:21.896Z,27.84
2022-08-10T17:00:49.939Z,27.83
2022-08-10T17:04:06.114Z,27.80
2022-08-10T17:06:17.254Z,27.80
2022-08-10T17:08:48.519Z,27.80
2022-08-10T17:11:17.757Z,27.76
2022-08-10T17:13:44.758Z,27.71
2022-08-10T17:16:18.167Z,27.70
2022-08-10T17:18:49.035Z,27.71
2022-08-10T17:21:22.410Z,27.70
2022-08-10T17:23:56.042Z,27.52
2022-08-10T17:26:35.539Z,27.48
2022-08-10T17:29:57.254Z,27.41
2022-08-10T17:32:44.772Z,27.35
2022-08-10T17:35:22.518Z,27.26
2022-08-10T17:38:11.143Z,27.25
2022-08-10T17:40:47.299Z,27.18
2022-08-10T17:43:46.541Z,27.13
2022-08-10T17:46:08.858Z,27.07
2022-08-10T17:48:36.847Z,26.99
2022-08-10T17:51:09.224Z,26.88
2022-08-10T17:53:43.031Z,26.79
2022-08-10T17:56:10.883Z,26.83
2022-08-10T17:58:40.106Z,26.83
2022-08-10T18:01:38.779Z,26.74
2022-08-10T18:04:02.184Z,26.63
2022-08-10T18:06:30.378Z,26.59
2022-08-10T18:09:00.758Z,26.60
2022-08-10T18:11:31.046Z,26.57
2022-08-10T18:14:02.319Z,26.53
2022-08-10T18:16:31.861Z,26.42
2022-08-10T18:19:19.110Z,26.30
2022-08-10T18:21:48.908Z,26.27
2022-08-10T18:24:18.291Z,26.22
2022-08-10T18:26:47.834Z,26.20
2022-08-10T18:29:20.775Z,26.16
2022-08-10T18:31:49.438Z,26.11
2022-08-10T18:34:20.745Z,26.08
2022-08-10T18:36:49.617Z,26.04
2022-08-10T18:39:21.838Z,26.02
2022-08-10T18:42:00.213Z,25.99
2022-08-10T18:44:36.249Z,25.97
2022-08-10T18:47:08.582Z,25.89
2022-08-10T18:49:57.940Z,25.78
2022-08-10T18:52:27.751Z,25.69
2022-08-10T18:55:02.294Z,25.67
2022-08-10T18:57:45.937Z,25.61
2022-08-10T19:00:15.221Z,25.58
2022-08-10T19:02:54.178Z,25.52
2022-08-10T19:05:30.719Z,25.48
2022-08-10T19:08:29.951Z,25.36
2022-08-10T19:11:44.599Z,25.26
2022-08-10T19:14:25.152Z,25.17
2022-08-10T19:17:05.195Z,25.08
2022-08-10T19:19:46.410Z,25.01
2022-08-10T19:22:43.163Z,24.97
2022-08-10T19:26:42.281Z,24.89
2022-08-10T19:28:30.467Z,24.85
2022-08-10T19:31:10.004Z,24.79
2022-08-10T19:33:52.508Z,24.73
2022-08-10T19:36:51.511Z,24.64
2022-08-10T19:39:29.212Z,24.54
2022-08-10T19:42:19.800Z,24.45
2022-08-10T19:46:02.065Z,24.37
2022-08-10T19:48:29.839Z,24.28
2022-08-10T19:51:19.978Z,24.22
2022-08-10T19:54:03.620Z,24.11
2022-08-10T19:57:00.927Z,24.10
2022-08-10T20:00:18.694Z,24.10
2022-08-10T20:02:20.877Z,24.06
2022-08-10T20:05:12.107Z,24.06
2022-08-10T20:08:14.447Z,24.03
2022-08-10T20:10:49.680Z,24.04
2022-08-10T20:13:42.807Z,23.99
2022-08-10T20:16:18.568Z,23.79
2022-08-10T20:18:53.436Z,23.93
2022-08-10T20:21:25.711Z,23.89
2022-08-10T20:24:05.601Z,23.85
2022-08-10T20:26:38.828Z,23.78
2022-08-10T20:29:16.097Z,23.71
2022-08-10T20:31:56.637Z,23.71
2022-08-10T20:34:27.561Z,23.66
2022-08-10T20:37:08.305Z,23.63
2022-08-10T20:39:49.788Z,23.57
2022-08-10T20:42:31.232Z,23.52
2022-08-10T20:44:57.779Z,23.51
2022-08-10T20:47:53.702Z,23.47
2022-08-10T20:50:33.623Z,23.44
2022-08-10T20:53:05.387Z,23.41
2022-08-10T20:55:54.680Z,23.37
2022-08-10T20:58:37.771Z,23.33
2022-08-10T21:01:16.915Z,23.32
2022-08-10T21:04:05.701Z,23.29
2022-08-10T21:07:28.293Z,23.25
2022-08-10T21:10:27.698Z,23.22
2022-08-10T21:13:17.260Z,23.16
2022-08-10T21:15:43.826Z,23.12
2022-08-10T21:18:36.322Z,23.06
2022-08-10T21:24:40.935Z,22.95
2022-08-10T21:25:42.050Z,23.00
2022-08-10T21:27:14.609Z,22.92
2022-08-10T21:30:00.520Z,22.88
2022-08-10T21:32:43.840Z,22.79
2022-08-10T21:35:42.408Z,22.79
2022-08-10T21:38:46.499Z,22.75
2022-08-10T21:41:57.978Z,22.68
2022-08-10T21:45:14.100Z,22.59
2022-08-10T21:48:20.592Z,22.63
2022-08-10T21:51:24.365Z,22.56
2022-08-10T21:54:22.824Z,22.52
2022-08-10T21:57:25.154Z,22.45
2022-08-10T22:00:18.437Z,22.41
2022-08-10T22:03:08.066Z,22.35
2022-08-10T22:05:56.378Z,22.37
2022-08-10T22:08:50.367Z,22.35
2022-08-10T22:11:38.198Z,22.33
2022-08-10T22:14:26.313Z,22.29
2022-08-10T22:17:22.834Z,22.25
2022-08-10T22:20:37.428Z,22.22
2022-08-10T22:23:27.350Z,22.13
2022-08-10T22:29:56.487Z,22.06
2022-08-10T22:31:26.142Z,22.07
2022-08-10T22:33:04.869Z,22.03
2022-08-10T22:35:56.301Z,21.98
2022-08-10T22:38:56.238Z,21.94
2022-08-10T22:42:00.923Z,21.91
2022-08-10T22:44:48.241Z,21.83
2022-08-10T22:47:37.811Z,21.82
2022-08-10T22:50:07.694Z,21.80
2022-08-10T22:52:57.244Z,21.77
2022-08-10T22:55:51.881Z,21.73
2022-08-10T22:58:37.619Z,21.68
2022-08-10T23:02:08.930Z,21.66
2022-08-10T23:04:44.974Z,21.56
2022-08-10T23:07:22.556Z,21.56
2022-08-10T23:09:57.717Z,21.50
2022-08-10T23:12:30.399Z,21.44
2022-08-10T23:15:18.098Z,21.40
2022-08-10T23:18:11.468Z,21.30
2022-08-10T23:20:40.304Z,21.28
2022-08-10T23:23:10.275Z,21.23
2022-08-10T23:25:57.217Z,21.20
2022-08-10T23:28:39.096Z,21.13
2022-08-10T23:31:14.572Z,21.06
2022-08-10T23:33:42.511Z,21.05
2022-08-10T23:36:34.117Z,21.05
2022-08-10T23:39:26.727Z,21.06
2022-08-10T23:42:06.341Z,21.00
2022-08-10T23:44:55.567Z,20.95
2022-08-10T23:47:24.818Z,20.90
2022-08-10T23:50:00.741Z,20.85
2022-08-10T23:52:34.710Z,20.84
2022-08-10T23:55:05.607Z,20.85
2022-08-10T23:57:36.092Z,20.74
